Time;durP1;ratioP1;P1;durP2;ratioP2;P2;SDS_P1;SDS_P2;PMS_P1;PMS_P2;Temp;Humidity;BMP_temperature;BMP_pressure;BME280_temperature;BME280_humidity;BME280_pressure;Samples;Min_cycle;Max_cycle;Signal;HPM_P1;HPM_P2
2023/03/16 00:02:16;;;;;;;1.48;1.02;;;2.80;99.90;;;;;;5074694;28;20051;-74
2023/03/16 00:04:46;;;;;;;2.28;1.35;;;3.30;99.90;;;;;;5091524;28;20134;-74
2023/03/16 00:07:13;;;;;;;2.10;1.20;;;3.30;99.90;;;;;;5091060;28;20048;-74
2023/03/16 00:09:40;;;;;;;5.07;1.00;;;3.30;99.90;;;;;;5091155;28;20487;-74
2023/03/16 00:12:14;;;;;;;1.70;1.17;;;3.30;99.90;;;;;;5091144;28;20040;-74
2023/03/16 00:14:42;;;;;;;2.58;1.13;;;3.30;99.90;;;;;;5074239;28;20127;-74
2023/03/16 00:17:17;;;;;;;1.05;0.90;;;3.30;99.90;;;;;;5074505;28;20084;-74
2023/03/16 00:19:45;;;;;;;1.23;0.75;;;3.30;99.90;;;;;;5091031;28;20406;-74
2023/03/16 00:22:13;;;;;;;6.50;1.02;;;3.30;99.90;;;;;;5090991;28;20040;-74
2023/03/16 00:24:42;;;;;;;1.92;1.40;;;3.30;99.90;;;;;;5091016;28;20105;-74
2023/03/16 00:27:13;;;;;;;4.97;1.20;;;3.30;99.90;;;;;;5076247;28;20125;-74
2023/03/16 00:29:54;;;;;;;2.83;1.27;;;3.30;99.90;;;;;;5094625;28;20032;-74
2023/03/16 00:32:28;;;;;;;3.03;1.40;;;3.30;99.90;;;;;;5094575;28;20123;-74
2023/03/16 00:34:53;;;;;;;2.95;1.15;;;3.30;99.90;;;;;;5094535;28;20067;-74
2023/03/16 00:37:22;;;;;;;2.05;0.80;;;3.30;99.90;;;;;;5094764;28;20546;-74
2023/03/16 00:39:48;;;;;;;3.58;1.10;;;3.30;99.90;;;;;;5094427;28;20048;-74
2023/03/16 00:42:15;;;;;;;3.60;1.17;;;3.30;99.90;;;;;;5094316;28;20032;-74
2023/03/16 00:44:41;;;;;;;2.25;0.75;;;3.30;99.90;;;;;;5094315;28;20040;-74
2023/03/16 00:47:07;;;;;;;1.35;0.95;;;3.30;99.90;;;;;;5094387;28;20047;-74
2023/03/16 00:49:36;;;;;;;1.70;0.85;;;3.30;99.90;;;;;;5094241;28;20162;-74
2023/03/16 00:52:03;;;;;;;6.38;0.93;;;3.30;99.90;;;;;;5094153;28;20068;-74
2023/03/16 00:54:31;;;;;;;1.30;1.02;;;3.30;99.90;;;;;;5094342;28;20526;-74
2023/03/16 00:56:58;;;;;;;1.63;1.08;;;3.30;99.90;;;;;;5094092;28;20050;-74
2023/03/16 00:59:25;;;;;;;1.77;1.20;;;3.30;99.90;;;;;;5093978;28;20392;-74
2023/03/16 01:01:51;;;;;;;2.75;1.00;;;3.30;99.90;;;;;;5094226;28;20565;-74
2023/03/16 01:04:18;;;;;;;1.85;0.90;;;3.30;99.90;;;;;;5097570;28;20039;-74
2023/03/16 01:06:44;;;;;;;3.25;1.30;;;3.30;99.90;;;;;;5080284;28;20040;-74
2023/03/16 01:09:10;;;;;;;4.03;1.08;;;3.30;99.90;;;;;;5080408;28;20047;-74
2023/03/16 01:11:36;;;;;;;1.30;1.08;;;3.30;99.90;;;;;;5097454;28;20502;-74
2023/03/16 01:14:02;;;;;;;2.63;1.35;;;3.30;99.90;;;;;;5080564;28;20043;-74
2023/03/16 01:16:28;;;;;;;3.22;1.30;;;3.30;99.90;;;;;;5097348;28;20502;-74
2023/03/16 01:18:55;;;;;;;2.25;1.33;;;3.30;99.90;;;;;;5097034;28;20036;-75
2023/03/16 01:21:21;;;;;;;4.65;1.60;;;3.30;99.90;;;;;;5097020;28;20123;-74
2023/03/16 01:23:47;;;;;;;1.38;0.80;;;3.30;99.90;;;;;;5096932;28;20083;-74
2023/03/16 01:26:16;;;;;;;6.30;1.30;;;3.30;99.90;;;;;;5096757;28;20043;-74
2023/03/16 01:28:43;;;;;;;1.85;1.15;;;3.30;99.90;;;;;;5096865;28;20127;-74
2023/03/16 01:31:13;;;;;;;4.25;1.60;;;3.30;99.90;;;;;;5097141;28;20035;-74
2023/03/16 01:33:39;;;;;;;6.78;1.30;;;3.30;99.90;;;;;;5096677;28;20032;-74
2023/03/16 01:36:07;;;;;;;1.23;0.88;;;3.30;99.90;;;;;;5079918;28;20040;-74
2023/03/16 01:38:33;;;;;;;1.98;1.15;;;3.30;99.90;;;;;;5096582;28;20050;-74
2023/03/16 01:40:59;;;;;;;3.20;1.30;;;3.30;99.90;;;;;;5096754;28;20043;-74
2023/03/16 01:43:28;;;;;;;1.45;1.15;;;3.30;99.90;;;;;;5079659;28;20035;-74
2023/03/16 01:46:05;;;;;;;7.43;1.63;;;3.30;99.90;;;;;;5096446;28;20043;-74
2023/03/16 01:49:13;;;;;;;2.47;1.38;;;3.40;99.90;;;;;;5096426;28;20047;-74
2023/03/16 01:52:02;;;;;;;3.00;1.52;;;3.40;99.90;;;;;;5065906;28;20044;-74
2023/03/16 01:54:55;;;;;;;3.60;1.58;;;3.40;99.90;;;;;;5096576;28;20036;-74
2023/03/16 01:57:24;;;;;;;2.63;1.20;;;3.40;99.90;;;;;;5093453;28;20048;-74
2023/03/16 01:59:50;;;;;;;2.67;1.30;;;3.40;99.90;;;;;;5096497;28;20051;-74
2023/03/16 02:02:19;;;;;;;4.20;1.55;;;3.40;99.90;;;;;;5079360;28;20181;-74
2023/03/16 02:05:04;;;;;;;2.42;1.65;;;3.40;99.90;;;;;;5096418;28;20047;-74
2023/03/16 02:07:34;;;;;;;5.18;1.73;;;3.40;99.90;;;;;;5096034;28;20044;-74
2023/03/16 02:10:02;;;;;;;6.20;1.90;;;3.40;99.90;;;;;;5096300;28;20474;-74
2023/03/16 02:12:29;;;;;;;2.63;1.48;;;3.40;99.90;;;;;;5096306;28;20122;-74
2023/03/16 02:14:54;;;;;;;5.50;2.08;;;3.40;99.90;;;;;;5095954;28;20114;-74
2023/03/16 02:17:23;;;;;;;6.72;1.80;;;3.40;99.90;;;;;;5095875;28;20513;-74
2023/03/16 02:20:10;;;;;;;3.40;1.35;;;3.30;99.90;;;;;;5095834;28;20051;-74
2023/03/16 02:22:46;;;;;;;3.85;2.03;;;3.40;99.90;;;;;;5095757;28;20447;-76
2023/03/16 02:25:15;;;;;;;2.40;1.40;;;3.40;99.90;;;;;;5096072;28;20043;-74
2023/03/16 02:28:09;;;;;;;1.50;1.20;;;3.90;99.90;;;;;;5095598;28;20118;-74
2023/03/16 02:30:35;;;;;;;2.67;1.25;;;3.40;99.90;;;;;;5095666;28;20036;-75
2023/03/16 02:33:03;;;;;;;3.10;1.42;;;3.40;99.90;;;;;;5095605;28;20398;-74
2023/03/16 02:35:30;;;;;;;2.65;1.48;;;3.40;99.90;;;;;;5078756;28;20047;-75
2023/03/16 02:37:55;;;;;;;3.20;1.77;;;3.40;99.90;;;;;;5095535;28;20506;-74
2023/03/16 02:40:33;;;;;;;4.00;1.65;;;3.50;99.90;;;;;;5095694;28;20044;-74
2023/03/16 02:43:21;;;;;;;5.05;1.23;;;3.50;99.90;;;;;;5095778;28;20055;-74
2023/03/16 02:45:55;;;;;;;2.60;1.40;;;3.50;99.90;;;;;;5078872;28;20487;-74
2023/03/16 02:48:31;;;;;;;5.22;1.40;;;3.50;99.90;;;;;;5095439;28;20036;-74
2023/03/16 02:50:56;;;;;;;5.28;2.03;;;3.60;99.90;;;;;;5095235;28;20491;-74
2023/03/16 02:53:22;;;;;;;3.33;1.92;;;3.60;99.90;;;;;;5078495;28;20173;-74
2023/03/16 02:55:48;;;;;;;3.47;1.80;;;3.60;99.90;;;;;;5095557;28;20505;-74
2023/03/16 02:58:14;;;;;;;2.20;1.30;;;3.60;99.90;;;;;;5095194;28;20034;-74
2023/03/16 03:00:41;;;;;;;4.55;1.50;;;3.70;99.90;;;;;;5095520;28;20042;-73
2023/03/16 03:03:08;;;;;;;7.35;1.65;;;3.70;99.90;;;;;;5078214;28;20135;-74
2023/03/16 03:05:34;;;;;;;1.73;1.23;;;3.70;99.90;;;;;;5095313;28;20103;-74
2023/03/16 03:08:00;;;;;;;7.25;1.77;;;3.70;99.90;;;;;;5095066;28;20039;-74
2023/03/16 03:10:25;;;;;;;2.90;1.30;;;3.80;99.90;;;;;;5095022;28;20039;-74
2023/03/16 03:12:51;;;;;;;2.60;1.38;;;3.80;99.90;;;;;;5094980;28;20042;-74
2023/03/16 03:15:17;;;;;;;1.40;1.30;;;3.80;99.90;;;;;;5095017;28;20040;-74
2023/03/16 03:17:44;;;;;;;4.88;1.63;;;3.80;99.90;;;;;;5095014;28;20046;-74
2023/03/16 03:20:15;;;;;;;2.05;1.33;;;3.80;99.90;;;;;;5095270;28;20050;-74
2023/03/16 03:22:41;;;;;;;3.05;1.45;;;3.80;99.90;;;;;;5094853;28;20130;-74
2023/03/16 03:25:07;;;;;;;3.67;1.95;;;3.80;99.90;;;;;;5094841;28;20123;-74
2023/03/16 03:27:33;;;;;;;5.07;1.90;;;3.80;99.90;;;;;;5077985;28;20066;-74
2023/03/16 03:29:59;;;;;;;3.72;1.30;;;3.80;99.90;;;;;;5094876;28;20241;-74
2023/03/16 03:32:24;;;;;;;3.38;1.38;;;3.80;99.90;;;;;;5094887;28;20824;-74
2023/03/16 03:34:51;;;;;;;1.98;1.27;;;3.80;99.90;;;;;;5095385;28;20060;-74
2023/03/16 03:37:17;;;;;;;3.35;1.52;;;3.80;99.90;;;;;;5095033;28;20510;-73
2023/03/16 03:39:44;;;;;;;3.08;1.33;;;3.80;99.90;;;;;;5094811;28;20039;-74
2023/03/16 03:42:10;;;;;;;3.72;1.52;;;3.80;99.90;;;;;;5094769;28;20050;-74
2023/03/16 03:44:36;;;;;;;3.65;1.42;;;3.80;99.90;;;;;;5094683;28;20511;-74
2023/03/16 03:47:02;;;;;;;3.28;1.58;;;3.80;99.90;;;;;;5094670;28;20071;-74
2023/03/16 03:49:28;;;;;;;2.05;1.30;;;3.80;99.90;;;;;;5094682;28;20039;-74
2023/03/16 03:51:54;;;;;;;3.17;1.75;;;3.80;99.90;;;;;;5094680;28;20043;-74
2023/03/16 03:54:20;;;;;;;2.75;1.55;;;5.40;99.90;;;;;;5094598;28;20054;-74
2023/03/16 03:56:46;;;;;;;1.92;1.20;;;3.80;99.90;;;;;;5094846;28;20405;-74
2023/03/16 03:59:11;;;;;;;6.15;1.75;;;3.80;99.90;;;;;;5094624;28;20035;-74
2023/03/16 04:01:37;;;;;;;2.17;1.20;;;3.90;99.90;;;;;;5096245;28;20495;-74
2023/03/16 04:04:02;;;;;;;2.88;1.90;;;3.90;99.90;;;;;;5098385;28;20135;-74
2023/03/16 04:06:28;;;;;;;3.17;1.50;;;3.90;99.90;;;;;;5098439;28;20550;-74
2023/03/16 04:08:54;;;;;;;2.60;1.98;;;3.90;99.90;;;;;;5081784;28;20126;-74
2023/03/16 04:11:20;;;;;;;2.80;1.50;;;3.90;99.90;;;;;;5081529;28;20066;-74
2023/03/16 04:13:46;;;;;;;4.28;1.98;;;3.90;99.90;;;;;;5098317;28;20410;-74
2023/03/16 04:16:14;;;;;;;2.30;1.30;;;3.90;99.90;;;;;;5098617;28;20035;-74
2023/03/16 04:18:41;;;;;;;5.95;1.98;;;3.90;99.90;;;;;;5098494;28;20126;-73
2023/03/16 04:21:11;;;;;;;2.63;1.50;;;3.90;99.90;;;;;;5098858;28;20078;-74
2023/03/16 04:23:37;;;;;;;2.72;1.38;;;4.00;99.90;;;;;;5098823;28;20061;-73
2023/03/16 04:26:04;;;;;;;2.25;1.48;;;4.00;99.90;;;;;;5098585;28;20475;-73
2023/03/16 04:28:31;;;;;;;4.90;2.03;;;4.00;99.90;;;;;;5098319;28;20082;-74
2023/03/16 04:31:05;;;;;;;2.63;1.73;;;4.00;99.90;;;;;;5098600;28;20164;-75
2023/03/16 04:33:32;;;;;;;2.97;1.75;;;4.00;99.90;;;;;;5098142;28;20039;-74
2023/03/16 04:35:59;;;;;;;6.03;1.95;;;4.00;99.90;;;;;;5098366;28;20039;-74
2023/03/16 04:38:24;;;;;;;3.35;1.83;;;4.00;99.90;;;;;;5098199;28;20035;-73
2023/03/16 04:40:50;;;;;;;4.10;1.85;;;4.00;99.90;;;;;;5098281;28;20122;-73
2023/03/16 04:43:16;;;;;;;4.28;1.98;;;4.00;99.90;;;;;;5098058;28;20036;-74
2023/03/16 04:45:41;;;;;;;5.78;1.60;;;4.00;99.90;;;;;;5081034;28;20384;-74
2023/03/16 04:48:08;;;;;;;1.95;1.00;;;4.00;99.90;;;;;;5097898;28;20047;-74
2023/03/16 04:50:34;;;;;;;2.88;1.52;;;4.00;99.90;;;;;;5098103;28;20074;-73
2023/03/16 04:53:00;;;;;;;4.55;1.45;;;5.60;99.90;;;;;;5097960;28;20096;-73
2023/03/16 04:55:25;;;;;;;2.80;1.80;;;4.00;99.90;;;;;;5097906;28;20031;-74
2023/03/16 04:57:51;;;;;;;2.67;1.40;;;4.00;99.90;;;;;;5081160;28;20375;-74
2023/03/16 05:00:19;;;;;;;2.33;1.58;;;4.00;99.90;;;;;;5097966;28;20071;-74
2023/03/16 05:02:46;;;;;;;4.53;2.05;;;4.00;99.90;;;;;;5094589;28;20056;-76
2023/03/16 05:05:12;;;;;;;2.63;1.50;;;4.10;99.90;;;;;;5093835;28;20062;-76
2023/03/16 05:07:40;;;;;;;2.22;1.70;;;4.10;99.90;;;;;;5093949;28;20036;-76
2023/03/16 05:10:10;;;;;;;3.25;1.92;;;4.00;99.90;;;;;;5076948;28;20400;-76
2023/03/16 05:12:35;;;;;;;4.32;2.13;;;4.10;99.90;;;;;;5093650;28;20547;-75
2023/03/16 05:15:01;;;;;;;4.03;1.50;;;4.00;99.90;;;;;;5077071;28;20040;-75
2023/03/16 05:17:27;;;;;;;3.42;1.45;;;4.10;99.90;;;;;;5093523;28;20084;-75
2023/03/16 05:19:52;;;;;;;5.82;1.73;;;4.00;99.90;;;;;;5076765;28;20040;-76
2023/03/16 05:22:18;;;;;;;2.97;1.83;;;6.20;99.90;;;;;;5093839;28;20036;-76
2023/03/16 05:24:44;;;;;;;2.58;1.42;;;6.50;99.90;;;;;;5076686;28;20036;-75
2023/03/16 05:27:09;;;;;;;2.45;1.45;;;3.90;99.90;;;;;;5076706;28;20036;-75
2023/03/16 05:29:35;;;;;;;3.30;1.77;;;5.80;99.90;;;;;;5076598;28;20127;-76
2023/03/16 05:32:01;;;;;;;4.20;1.17;;;4.00;99.90;;;;;;5093422;28;20036;-80
2023/03/16 05:34:27;;;;;;;3.70;1.23;;;4.00;99.90;;;;;;5093334;28;20085;-74
2023/03/16 05:37:02;;;;;;;2.65;1.40;;;4.00;99.90;;;;;;5094783;28;20389;-75
2023/03/16 05:39:29;;;;;;;4.88;1.73;;;6.10;99.90;;;;;;5076440;28;20040;-74
2023/03/16 05:41:58;;;;;;;5.35;1.73;;;4.00;99.90;;;;;;5094327;28;20071;-74
2023/03/16 05:44:24;;;;;;;1.90;1.45;;;3.60;99.90;;;;;;5093099;28;20044;-75
2023/03/16 05:46:49;;;;;;;2.63;1.40;;;4.50;99.90;;;;;;5094312;28;20044;-75
2023/03/16 05:49:15;;;;;;;4.00;1.83;;;5.30;99.90;;;;;;5076418;28;20111;-75
2023/03/16 05:51:41;;;;;;;3.03;1.55;;;3.80;99.90;;;;;;5094274;28;20071;-75
2023/03/16 05:54:07;;;;;;;2.13;1.42;;;5.30;99.90;;;;;;5076429;28;20452;-75
2023/03/16 05:56:33;;;;;;;5.10;1.30;;;3.90;99.90;;;;;;5094116;28;20042;-75
2023/03/16 05:58:59;;;;;;;4.13;1.90;;;5.10;99.90;;;;;;5094141;28;20063;-75
2023/03/16 06:01:25;;;;;;;1.17;1.05;;;4.00;99.90;;;;;;5094306;28;20035;-75
2023/03/16 06:03:53;;;;;;;1.98;1.08;;;6.40;99.90;;;;;;5111105;28;20406;-75
2023/03/16 06:06:21;;;;;;;4.13;2.15;;;5.70;99.90;;;;;;5114229;28;20424;-75
2023/03/16 06:08:47;;;;;;;3.13;1.90;;;4.00;99.90;;;;;;5096033;28;20039;-75
2023/03/16 06:11:13;;;;;;;2.10;1.45;;;5.80;99.90;;;;;;5114278;28;20395;-75
2023/03/16 06:13:39;;;;;;;2.35;1.45;;;3.50;99.90;;;;;;5114267;28;20028;-75
2023/03/16 06:16:05;;;;;;;3.92;2.28;;;6.10;99.90;;;;;;5078575;28;20429;-75
2023/03/16 06:18:34;;;;;;;2.10;1.75;;;4.10;99.90;;;;;;5096679;28;20040;-74
2023/03/16 06:21:00;;;;;;;3.15;1.85;;;3.50;99.90;;;;;;5114311;28;20406;-75
2023/03/16 06:23:26;;;;;;;6.10;1.80;;;5.40;99.90;;;;;;5095352;28;20036;-75
2023/03/16 06:25:55;;;;;;;2.63;1.70;;;6.10;99.90;;;;;;5078652;28;20040;-75
2023/03/16 06:28:21;;;;;;;2.28;1.60;;;3.50;99.90;;;;;;5113853;28;20048;-75
2023/03/16 06:30:47;;;;;;;3.60;1.98;;;4.00;99.90;;;;;;5095579;28;20452;-75
2023/03/16 06:33:13;;;;;;;4.30;2.22;;;6.40;99.90;;;;;;5113825;28;20071;-75
2023/03/16 06:35:38;;;;;;;4.75;1.83;;;5.70;99.90;;;;;;5113752;28;20042;-74
2023/03/16 06:38:04;;;;;;;7.53;2.30;;;4.00;99.90;;;;;;5113811;28;20048;-75
2023/03/16 06:40:30;;;;;;;3.97;1.90;;;3.50;99.90;;;;;;5095420;28;20402;-74
2023/03/16 06:42:56;;;;;;;6.60;1.90;;;4.00;99.90;;;;;;5078893;28;20039;-74
2023/03/16 06:45:21;;;;;;;3.50;1.83;;;3.50;99.90;;;;;;5095507;28;20046;-74
2023/03/16 06:47:47;;;;;;;4.40;2.38;;;3.60;99.90;;;;;;5095206;28;20434;-75
2023/03/16 06:50:13;;;;;;;4.30;1.65;;;4.80;99.90;;;;;;5113567;28;20039;-75
2023/03/16 06:52:40;;;;;;;1.88;1.20;;;4.00;99.90;;;;;;5078453;28;20038;-75
2023/03/16 06:55:06;;;;;;;2.13;1.48;;;4.20;99.90;;;;;;5095208;28;20097;-75
2023/03/16 06:57:32;;;;;;;1.88;1.25;;;4.30;99.90;;;;;;5113419;28;20048;-75
2023/03/16 06:59:57;;;;;;;5.07;2.13;;;6.50;99.90;;;;;;5095169;28;20055;-75
2023/03/16 07:02:23;;;;;;;4.35;1.70;;;4.20;99.90;;;;;;5113144;28;20056;-76
2023/03/16 07:04:49;;;;;;;2.50;1.55;;;5.50;99.90;;;;;;5113321;28;20044;-75
2023/03/16 07:07:16;;;;;;;5.45;1.95;;;3.80;99.90;;;;;;5113221;28;20126;-75
2023/03/16 07:09:42;;;;;;;2.00;1.33;;;3.90;99.90;;;;;;5095007;28;20122;-75
2023/03/16 07:12:08;;;;;;;2.67;1.40;;;6.00;99.90;;;;;;5113520;28;20491;-76
2023/03/16 07:14:34;;;;;;;6.78;2.10;;;4.50;99.90;;;;;;5078308;28;20050;-75
2023/03/16 07:17:00;;;;;;;3.13;1.55;;;4.50;99.90;;;;;;5095000;28;20526;-74
2023/03/16 07:19:27;;;;;;;3.03;1.85;;;4.50;99.90;;;;;;5078123;28;20039;-74
2023/03/16 07:21:53;;;;;;;2.78;1.80;;;4.70;99.90;;;;;;5078134;28;20039;-74
2023/03/16 07:24:18;;;;;;;3.03;1.70;;;4.60;99.90;;;;;;5094888;28;20050;-75
2023/03/16 07:26:45;;;;;;;4.60;2.00;;;6.60;99.90;;;;;;5094779;28;20156;-75
2023/03/16 07:29:12;;;;;;;4.82;2.20;;;6.30;99.90;;;;;;5078276;28;20046;-74
2023/03/16 07:31:38;;;;;;;7.30;2.08;;;4.20;99.90;;;;;;5094832;28;20092;-74
2023/03/16 07:34:04;;;;;;;1.85;1.30;;;4.40;99.90;;;;;;5094727;28;20565;-74
2023/03/16 07:36:30;;;;;;;1.20;0.85;;;4.70;99.90;;;;;;5098082;28;20040;-75
2023/03/16 07:38:56;;;;;;;3.35;1.52;;;4.80;99.90;;;;;;5098929;28;20077;-75
2023/03/16 07:41:21;;;;;;;3.25;1.67;;;4.60;99.90;;;;;;5082312;28;20519;-75
2023/03/16 07:43:47;;;;;;;4.05;2.13;;;6.60;99.90;;;;;;5082005;28;20042;-75
2023/03/16 07:46:13;;;;;;;4.05;1.60;;;4.40;99.90;;;;;;5081784;28;20039;-75
2023/03/16 07:48:43;;;;;;;2.42;1.50;;;4.80;99.90;;;;;;5098926;28;20147;-75
2023/03/16 07:51:10;;;;;;;4.78;1.60;;;4.90;99.90;;;;;;5098938;28;20040;-75
2023/03/16 07:53:39;;;;;;;3.07;1.50;;;4.90;99.90;;;;;;5098410;28;20052;-74
2023/03/16 07:56:05;;;;;;;3.55;1.25;;;7.00;99.90;;;;;;5117103;28;20319;-75
2023/03/16 07:58:34;;;;;;;2.13;1.30;;;5.00;99.90;;;;;;5098456;28;20043;-74
2023/03/16 08:01:00;;;;;;;2.88;1.75;;;5.00;99.90;;;;;;5098722;28;20039;-74
2023/03/16 08:03:27;;;;;;;6.13;2.22;;;4.40;99.90;;;;;;5081316;28;20411;-75
2023/03/16 08:05:55;;;;;;;2.55;1.73;;;4.50;99.90;;;;;;5098555;28;20392;-74
2023/03/16 08:08:21;;;;;;;2.70;1.73;;;5.10;99.90;;;;;;5116481;28;20088;-74
2023/03/16 08:10:51;;;;;;;6.30;1.33;;;4.40;99.90;;;;;;5116554;28;20040;-74
2023/03/16 08:13:17;;;;;;;5.72;1.50;;;7.40;99.90;;;;;;5116439;28;20067;-75
2023/03/16 08:15:57;;;;;;;5.90;1.35;;;5.00;99.90;;;;;;5098152;28;20043;-74
2023/03/16 08:18:24;;;;;;;7.07;2.38;;;5.10;99.90;;;;;;5098109;28;20407;-74
2023/03/16 08:20:50;;;;;;;3.17;1.75;;;5.70;99.90;;;;;;5064264;28;20043;-74
2023/03/16 08:23:16;;;;;;;4.95;2.15;;;5.10;99.90;;;;;;5098305;28;20040;-74
2023/03/16 08:25:41;;;;;;;1.95;0.93;;;4.40;99.90;;;;;;5098307;28;20536;-74
2023/03/16 08:28:08;;;;;;;2.67;1.45;;;4.80;99.90;;;;;;5081016;28;20035;-74
2023/03/16 08:30:34;;;;;;;6.32;1.50;;;6.00;99.90;;;;;;5116138;28;20032;-74
2023/03/16 08:33:01;;;;;;;2.42;1.40;;;6.60;99.90;;;;;;5081079;28;20046;-74
2023/03/16 08:35:29;;;;;;;4.40;2.00;;;5.00;99.90;;;;;;5116131;28;20039;-74
2023/03/16 08:37:55;;;;;;;2.75;1.63;;;5.10;1.00;;;;;;5081175;28;20158;-74
2023/03/16 08:40:21;;;;;;;2.67;1.75;;;7.40;1.00;;;;;;5081059;28;20039;-74
2023/03/16 08:42:49;;;;;;;2.40;1.65;;;5.00;99.90;;;;;;5116007;28;20031;-74
2023/03/16 08:45:16;;;;;;;3.42;1.90;;;4.40;99.90;;;;;;5097896;28;20054;-74
2023/03/16 08:47:42;;;;;;;3.00;1.77;;;5.00;99.90;;;;;;5114979;28;20039;-74
2023/03/16 08:50:11;;;;;;;2.10;1.40;;;5.20;99.90;;;;;;5116180;28;20454;-74
2023/03/16 08:52:38;;;;;;;2.15;1.40;;;5.10;1.00;;;;;;5097551;28;20081;-74
2023/03/16 08:55:04;;;;;;;3.92;1.42;;;5.00;99.90;;;;;;5115765;28;20029;-74
2023/03/16 08:57:34;;;;;;;8.30;2.70;;;5.20;99.90;;;;;;5097427;28;20043;-74
2023/03/16 09:00:00;;;;;;;7.57;2.28;;;5.10;99.90;;;;;;5115661;28;20044;-74
2023/03/16 09:02:26;;;;;;;2.67;1.77;;;7.40;35.70;;;;;;5080244;28;20405;-74
2023/03/16 09:04:52;;;;;;;2.63;1.65;;;7.10;99.90;;;;;;5115599;28;20076;-74
2023/03/16 09:07:18;;;;;;;4.25;2.00;;;4.50;99.90;;;;;;5097331;28;20078;-74
2023/03/16 09:09:44;;;;;;;9.38;1.60;;;6.80;99.90;;;;;;5080338;28;20435;-74
2023/03/16 09:12:11;;;;;;;2.97;2.08;;;5.10;99.90;;;;;;5080217;28;20592;-74
2023/03/16 09:14:38;;;;;;;3.08;1.80;;;5.10;1.00;;;;;;5080402;28;20047;-74
2023/03/16 09:17:06;;;;;;;3.38;2.17;;;6.90;99.90;;;;;;5115359;28;20087;-74
2023/03/16 09:19:32;;;;;;;3.60;2.15;;;6.80;99.90;;;;;;5080160;28;20058;-75
2023/03/16 09:21:59;;;;;;;4.35;2.08;;;4.70;99.90;;;;;;5080185;28;20036;-74
2023/03/16 09:24:25;;;;;;;2.58;1.60;;;5.10;95.40;;;;;;5115149;28;20036;-74
2023/03/16 09:26:51;;;;;;;6.85;1.90;;;5.20;1.00;;;;;;5096722;28;20487;-74
2023/03/16 09:29:17;;;;;;;4.13;1.95;;;7.40;95.00;;;;;;5115351;28;20028;-75
2023/03/16 09:31:44;;;;;;;3.72;1.60;;;4.50;99.90;;;;;;5096772;28;20444;-74
2023/03/16 09:34:13;;;;;;;3.88;1.98;;;5.20;99.90;;;;;;5097522;28;20483;-75
2023/03/16 09:36:39;;;;;;;3.83;1.30;;;7.10;1.00;;;;;;5096956;28;20051;-75
2023/03/16 09:39:06;;;;;;;6.70;2.30;;;7.40;99.90;;;;;;5096708;28;20040;-74
2023/03/16 09:41:47;;;;;;;4.82;2.13;;;5.30;99.90;;;;;;5115184;28;20035;-75
2023/03/16 09:44:31;;;;;;;4.93;2.15;;;7.50;99.90;;;;;;5079931;28;20035;-75
2023/03/16 09:47:00;;;;;;;5.38;1.77;;;7.60;99.90;;;;;;5079532;28;20051;-75
2023/03/16 09:49:31;;;;;;;3.70;2.20;;;5.40;99.90;;;;;;5096459;28;20047;-75
2023/03/16 09:52:06;;;;;;;;;;;5.40;99.90;;;;;;5097831;28;20047;-75
2023/03/16 09:54:41;;;;;;;3.72;2.15;;;5.70;99.90;;;;;;5114924;28;20276;-75
2023/03/16 09:57:24;;;;;;;4.28;2.30;;;7.50;99.90;;;;;;5096261;28;20402;-75
2023/03/16 09:59:51;;;;;;;4.13;1.90;;;5.90;99.90;;;;;;5113654;28;20054;-75
2023/03/16 10:02:37;;;;;;;8.07;2.67;;;5.80;1.00;;;;;;5080252;28;20059;-75
2023/03/16 10:05:10;;;;;;;4.20;2.00;;;6.10;1.00;;;;;;5096468;28;20101;-75
2023/03/16 10:08:00;;;;;;;2.83;2.00;;;6.00;1.00;;;;;;5079160;28;20415;-75
2023/03/16 10:10:43;;;;;;;3.70;1.85;;;6.20;99.90;;;;;;5114580;28;20042;-74
2023/03/16 10:13:37;;;;;;;5.22;2.25;;;6.10;99.90;;;;;;5096054;28;20043;-75
2023/03/16 10:16:11;;;;;;;5.35;3.03;;;6.40;99.90;;;;;;5095931;28;20039;-75
2023/03/16 10:18:43;;;;;;;4.15;2.15;;;8.70;99.90;;;;;;5114160;28;20039;-75
2023/03/16 10:21:15;;;;;;;3.95;2.00;;;6.00;1.00;;;;;;5095846;28;20043;-75
2023/03/16 10:23:42;;;;;;;4.22;1.90;;;7.50;99.90;;;;;;5095700;28;20402;-75
2023/03/16 10:26:22;;;;;;;6.68;2.28;;;8.80;1.00;;;;;;5114164;28;20039;-75
2023/03/16 10:28:48;;;;;;;2.43;1.80;;;7.50;1.00;;;;;;5113911;28;20038;-75
2023/03/16 10:31:16;;;;;;;2.75;1.80;;;5.90;99.90;;;;;;5095581;28;20035;-75
2023/03/16 10:33:43;;;;;;;5.63;2.03;;;8.30;99.90;;;;;;5113708;28;20031;-75
2023/03/16 10:36:15;;;;;;;4.18;2.05;;;8.30;1.00;;;;;;5095628;28;20039;-75
2023/03/16 10:38:54;;;;;;;4.88;2.58;;;6.40;1.00;;;;;;5095578;28;20050;-75
2023/03/16 10:41:22;;;;;;;4.93;2.35;;;8.80;99.90;;;;;;5096162;28;20523;-75
2023/03/16 10:44:06;;;;;;;7.53;2.22;;;6.30;99.90;;;;;;5095456;28;20101;-75
2023/03/16 10:46:40;;;;;;;3.13;1.98;;;6.30;99.90;;;;;;5095271;28;20047;-75
2023/03/16 10:49:20;;;;;;;4.68;2.25;;;6.20;99.90;;;;;;5113587;28;20399;-75
2023/03/16 10:51:46;;;;;;;3.33;2.20;;;8.00;1.00;;;;;;5113543;28;20040;-75
2023/03/16 10:54:24;;;;;;;4.88;2.05;;;6.00;1.00;;;;;;5078401;28;20044;-75
2023/03/16 10:56:50;;;;;;;3.38;1.95;;;6.40;99.90;;;;;;5095458;28;20058;-75
2023/03/16 10:59:35;;;;;;;8.27;2.58;;;8.20;99.90;;;;;;5113538;28;20031;-75
2023/03/16 11:02:14;;;;;;;2.78;2.00;;;6.10;1.00;;;;;;5077988;28;20405;-74
2023/03/16 11:04:40;;;;;;;7.13;2.90;;;7.10;1.00;;;;;;5095379;28;20065;-75
2023/03/16 11:07:08;;;;;;;4.38;2.08;;;8.00;1.00;;;;;;5113554;28;20044;-75
2023/03/16 11:09:36;;;;;;;4.75;2.13;;;8.50;1.00;;;;;;5094628;28;20043;-75
2023/03/16 11:12:27;;;;;;;3.10;1.83;;;7.70;99.90;;;;;;5095016;28;20075;-75
2023/03/16 11:14:54;;;;;;;5.72;1.92;;;6.40;99.90;;;;;;5113457;28;20032;-75
2023/03/16 11:17:35;;;;;;;5.07;1.77;;;6.00;99.90;;;;;;5095248;28;20048;-75
2023/03/16 11:20:11;;;;;;;7.87;2.27;;;5.80;99.90;;;;;;5078136;28;20048;-75
2023/03/16 11:22:38;;;;;;;2.08;1.02;;;8.00;99.90;;;;;;5094901;28;20048;-75
2023/03/16 11:25:27;;;;;;;3.67;2.20;;;6.20;99.90;;;;;;5094925;28;20445;-75
2023/03/16 11:28:12;;;;;;;4.53;2.15;;;6.50;99.90;;;;;;5095301;28;20100;-75
2023/03/16 11:30:40;;;;;;;4.45;1.90;;;6.60;99.90;;;;;;5078165;28;20047;-75
2023/03/16 11:33:12;;;;;;;3.97;2.03;;;8.90;99.90;;;;;;5095631;28;20028;-74
2023/03/16 11:36:26;;;;;;;2.85;1.67;;;5.90;99.90;;;;;;5094994;28;20089;-75
2023/03/16 11:38:58;;;;;;;6.70;1.92;;;6.50;99.90;;;;;;5094846;28;20031;-75
2023/03/16 11:41:29;;;;;;;3.78;1.95;;;6.50;99.90;;;;;;5113026;28;20168;-75
2023/03/16 11:43:55;;;;;;;;;;;6.60;99.90;;;;;;5113454;28;20039;-74
2023/03/16 11:46:26;;;;;;;3.53;1.73;;;8.70;99.90;;;;;;5094824;28;20045;-75
2023/03/16 11:49:29;;;;;;;3.55;1.70;;;6.60;99.90;;;;;;5112937;28;20407;-75
2023/03/16 11:52:19;;;;;;;4.80;1.70;;;6.60;99.90;;;;;;5077832;28;20039;-74
2023/03/16 11:55:08;;;;;;;2.40;1.60;;;6.70;99.90;;;;;;5095005;28;20042;-75
2023/03/16 11:57:46;;;;;;;4.38;1.95;;;6.70;99.90;;;;;;5112772;28;20151;-75
2023/03/16 12:00:38;;;;;;;4.53;1.83;;;6.70;99.90;;;;;;5094587;28;20441;-75
2023/03/16 12:03:52;;;;;;;3.75;1.92;;;6.90;1.00;;;;;;5094371;28;20052;-75
2023/03/16 12:06:51;;;;;;;4.70;2.03;;;7.00;67.30;;;;;;5036135;28;20180;-74
2023/03/16 12:09:36;;;;;;;3.58;2.15;;;7.00;99.90;;;;;;5077633;28;20035;-74
2023/03/16 12:12:28;;;;;;;3.13;1.75;;;8.00;99.90;;;;;;5094490;28;20040;-75
2023/03/16 12:15:26;;;;;;;2.42;1.52;;;7.20;99.90;;;;;;5077433;28;20126;-75
2023/03/16 12:17:58;;;;;;;2.30;1.33;;;7.30;1.00;;;;;;5094423;28;20052;-75
2023/03/16 12:20:34;;;;;;;6.88;1.83;;;7.30;85.00;;;;;;5094382;28;20040;-75
2023/03/16 12:23:13;;;;;;;3.70;2.28;;;7.30;99.90;;;;;;5096494;28;20398;-74
2023/03/16 12:25:44;;;;;;;4.32;1.98;;;9.90;99.90;;;;;;5081561;28;20134;-75
2023/03/16 12:28:26;;;;;;;2.63;1.70;;;8.80;13.50;;;;;;5098050;28;20055;-74
2023/03/16 12:31:11;;;;;;;2.92;1.85;;;9.60;99.90;;;;;;5098019;28;20441;-75
2023/03/16 12:33:48;;;;;;;3.22;1.83;;;7.80;1.00;;;;;;5098294;28;20043;-75
2023/03/16 12:36:32;;;;;;;2.40;1.80;;;9.50;99.90;;;;;;5081299;28;20502;-75
2023/03/16 12:39:06;;;;;;;2.63;1.60;;;8.00;99.90;;;;;;5081035;28;20440;-75
2023/03/16 12:42:07;;;;;;;2.92;1.80;;;8.00;99.90;;;;;;5097759;28;20032;-75
2023/03/16 12:44:55;;;;;;;2.90;1.92;;;8.10;99.90;;;;;;5080707;28;20040;-75
2023/03/16 12:47:49;;;;;;;3.90;1.90;;;8.20;58.60;;;;;;5080661;28;20040;-74
2023/03/16 12:50:18;;;;;;;3.03;1.40;;;8.40;1.00;;;;;;5080666;28;20071;-75
2023/03/16 12:52:50;;;;;;;2.90;1.60;;;8.50;1.00;;;;;;5080550;28;20039;-74
2023/03/16 12:55:26;;;;;;;5.40;1.83;;;8.50;1.00;;;;;;5097720;28;20032;-75
2023/03/16 12:58:00;;;;;;;11.95;1.90;;;8.60;1.00;;;;;;5080583;28;20040;-75
2023/03/16 13:00:40;;;;;;;3.33;1.75;;;8.50;99.90;;;;;;5080528;28;20075;-75
2023/03/16 13:03:13;;;;;;;2.05;1.15;;;10.90;1.00;;;;;;5080349;28;20044;-75
2023/03/16 13:05:48;;;;;;;2.55;1.50;;;8.30;99.90;;;;;;5097388;28;20465;-75
2023/03/16 13:08:16;;;;;;;3.17;1.65;;;10.80;99.90;;;;;;5097195;28;20388;-74
2023/03/16 13:11:19;;;;;;;2.75;1.75;;;8.40;99.90;;;;;;5097576;28;20131;-75
2023/03/16 13:14:14;;;;;;;2.67;1.40;;;10.30;99.90;;;;;;5080231;28;20046;-75
2023/03/16 13:16:40;;;;;;;5.43;2.15;;;11.00;99.90;;;;;;5097158;28;20504;-74